sensor_id;sensor_type;location;lat;lon;timestamp;pressure;altitude;pressure_sealevel;temperature;humidity
39699;BME280;25372;50.582;12.250;2023-02-13T00:02:11;102038.75;;;4.13;100.00
39699;BME280;25372;50.582;12.250;2023-02-13T00:12:32;102023.81;;;4.29;100.00
39699;BME280;25372;50.582;12.250;2023-02-13T00:22:55;102018.44;;;4.47;100.00
39699;BME280;25372;50.582;12.250;2023-02-13T00:33:17;102015.47;;;4.53;100.00
39699;BME280;25372;50.582;12.250;2023-02-13T00:43:39;102007.22;;;4.59;100.00
39699;BME280;25372;50.582;12.250;2023-02-13T00:54:00;102020.44;;;4.58;100.00
39699;BME280;25372;50.582;12.250;2023-02-13T01:04:22;102027.03;;;4.65;100.00
39699;BME280;25372;50.582;12.250;2023-02-13T01:14:43;102024.53;;;4.47;100.00
39699;BME280;25372;50.582;12.250;2023-02-13T01:25:06;102024.50;;;4.63;100.00
39699;BME280;25372;50.582;12.250;2023-02-13T01:35:27;102011.91;;;4.68;100.00
39699;BME280;25372;50.582;12.250;2023-02-13T01:45:52;102004.44;;;4.77;100.00
39699;BME280;25372;50.582;12.250;2023-02-13T01:56:17;101993.25;;;4.73;100.00
39699;BME280;25372;50.582;12.250;2023-02-13T02:06:43;101983.31;;;4.78;100.00
39699;BME280;25372;50.582;12.250;2023-02-13T02:17:14;101979.00;;;4.77;100.00
39699;BME280;25372;50.582;12.250;2023-02-13T02:38:39;101974.94;;;4.71;100.00
39699;BME280;25372;50.582;12.250;2023-02-13T02:49:05;101981.50;;;4.64;100.00
39699;BME280;25372;50.582;12.250;2023-02-13T02:59:50;101984.22;;;4.63;100.00
39699;BME280;25372;50.582;12.250;2023-02-13T03:10:31;101998.41;;;4.60;100.00
39699;BME280;25372;50.582;12.250;2023-02-13T03:21:16;101991.91;;;4.51;100.00
39699;BME280;25372;50.582;12.250;2023-02-13T03:32:06;101997.50;;;4.45;100.00
39699;BME280;25372;50.582;12.250;2023-02-13T03:42:34;102002.75;;;4.45;100.00
39699;BME280;25372;50.582;12.250;2023-02-13T03:53:00;102000.50;;;4.39;100.00
39699;BME280;25372;50.582;12.250;2023-02-13T04:03:23;102000.50;;;4.39;100.00
39699;BME280;25372;50.582;12.250;2023-02-13T04:13:49;102000.41;;;4.41;100.00
39699;BME280;25372;50.582;12.250;2023-02-13T04:24:13;102003.63;;;4.46;100.00
39699;BME280;25372;50.582;12.250;2023-02-13T04:34:34;101996.19;;;4.38;100.00
39699;BME280;25372;50.582;12.250;2023-02-13T04:44:56;102004.25;;;4.35;100.00
39699;BME280;25372;50.582;12.250;2023-02-13T04:55:17;101999.09;;;4.33;100.00
39699;BME280;25372;50.582;12.250;2023-02-13T05:05:39;101999.34;;;4.29;100.00
39699;BME280;25372;50.582;12.250;2023-02-13T05:16:00;101989.22;;;4.23;100.00
39699;BME280;25372;50.582;12.250;2023-02-13T05:26:22;101997.28;;;4.19;100.00
39699;BME280;25372;50.582;12.250;2023-02-13T05:36:43;101997.94;;;4.23;100.00
39699;BME280;25372;50.582;12.250;2023-02-13T05:47:05;101999.72;;;4.23;100.00
39699;BME280;25372;50.582;12.250;2023-02-13T05:57:26;101980.09;;;4.14;100.00
39699;BME280;25372;50.582;12.250;2023-02-13T06:07:48;101997.94;;;4.23;100.00
39699;BME280;25372;50.582;12.250;2023-02-13T06:18:09;101999.63;;;4.24;100.00
39699;BME280;25372;50.582;12.250;2023-02-13T06:28:32;102009.75;;;4.30;100.00
39699;BME280;25372;50.582;12.250;2023-02-13T06:38:53;102019.63;;;4.27;100.00
39699;BME280;25372;50.582;12.250;2023-02-13T06:49:15;102036.56;;;4.21;100.00
39699;BME280;25372;50.582;12.250;2023-02-13T06:59:36;102038.06;;;4.25;100.00
39699;BME280;25372;50.582;12.250;2023-02-13T07:09:58;102037.91;;;4.28;100.00
39699;BME280;25372;50.582;12.250;2023-02-13T07:20:19;102047.84;;;4.38;100.00
39699;BME280;25372;50.582;12.250;2023-02-13T07:30:41;102046.66;;;4.43;100.00
39699;BME280;25372;50.582;12.250;2023-02-13T07:41:02;102033.25;;;4.48;100.00
39699;BME280;25372;50.582;12.250;2023-02-13T07:51:25;102031.03;;;4.56;100.00
39699;BME280;25372;50.582;12.250;2023-02-13T08:01:47;102034.72;;;4.68;100.00
39699;BME280;25372;50.582;12.250;2023-02-13T08:12:09;102034.84;;;4.81;100.00
39699;BME280;25372;50.582;12.250;2023-02-13T08:22:30;102044.91;;;5.03;100.00
39699;BME280;25372;50.582;12.250;2023-02-13T08:32:52;102044.31;;;5.27;100.00
39699;BME280;25372;50.582;12.250;2023-02-13T08:43:13;102046.31;;;5.37;100.00
39699;BME280;25372;50.582;12.250;2023-02-13T08:53:35;102038.59;;;5.34;100.00
39699;BME280;25372;50.582;12.250;2023-02-13T09:03:56;102045.44;;;5.37;100.00
39699;BME280;25372;50.582;12.250;2023-02-13T09:14:18;102059.72;;;5.47;100.00
39699;BME280;25372;50.582;12.250;2023-02-13T09:24:39;102057.88;;;5.76;100.00
39699;BME280;25372;50.582;12.250;2023-02-13T09:35:01;102049.63;;;5.83;100.00
39699;BME280;25372;50.582;12.250;2023-02-13T09:45:21;102044.88;;;6.02;100.00
39699;BME280;25372;50.582;12.250;2023-02-13T09:55:46;102041.50;;;6.00;100.00
39699;BME280;25372;50.582;12.250;2023-02-13T10:06:16;102061.78;;;6.53;100.00
39699;BME280;25372;50.582;12.250;2023-02-13T10:16:42;102060.25;;;6.89;100.00
39699;BME280;25372;50.582;12.250;2023-02-13T10:27:16;102048.63;;;6.91;100.00
39699;BME280;25372;50.582;12.250;2023-02-13T10:37:39;102031.03;;;6.92;100.00
39699;BME280;25372;50.582;12.250;2023-02-13T10:48:08;102022.59;;;7.12;99.27
39699;BME280;25372;50.582;12.250;2023-02-13T10:58:47;101996.78;;;6.92;97.87
39699;BME280;25372;50.582;12.250;2023-02-13T11:09:11;102000.47;;;6.76;99.74
39699;BME280;25372;50.582;12.250;2023-02-13T11:19:36;102004.03;;;7.01;96.20
39699;BME280;25372;50.582;12.250;2023-02-13T11:30:00;101993.59;;;7.00;98.51
39699;BME280;25372;50.582;12.250;2023-02-13T11:40:30;101990.63;;;6.91;97.27
39699;BME280;25372;50.582;12.250;2023-02-13T11:50:51;101977.38;;;7.43;94.15
39699;BME280;25372;50.582;12.250;2023-02-13T12:01:26;101965.31;;;7.52;90.40
39699;BME280;25372;50.582;12.250;2023-02-13T12:11:48;101958.00;;;7.55;88.35
39699;BME280;25372;50.582;12.250;2023-02-13T12:22:31;101947.22;;;7.82;89.19
39699;BME280;25372;50.582;12.250;2023-02-13T12:32:58;101937.25;;;8.10;87.36
39699;BME280;25372;50.582;12.250;2023-02-13T12:43:50;101920.25;;;7.18;88.87
39699;BME280;25372;50.582;12.250;2023-02-13T12:54:33;101895.97;;;7.25;90.22
39699;BME280;25372;50.582;12.250;2023-02-13T13:05:07;101921.50;;;6.88;89.44
39699;BME280;25372;50.582;12.250;2023-02-13T13:15:39;101923.25;;;7.00;90.63
39699;BME280;25372;50.582;12.250;2023-02-13T13:26:12;101921.69;;;6.97;92.28
39699;BME280;25372;50.582;12.250;2023-02-13T13:36:39;101919.53;;;7.15;92.39
39699;BME280;25372;50.582;12.250;2023-02-13T13:47:11;101939.94;;;7.01;90.72
39699;BME280;25372;50.582;12.250;2023-02-13T13:57:57;101933.69;;;6.11;93.65
39699;BME280;25372;50.582;12.250;2023-02-13T14:19:29;101938.75;;;6.02;93.08
39699;BME280;25372;50.582;12.250;2023-02-13T14:29:51;101937.22;;;6.25;93.51
39699;BME280;25372;50.582;12.250;2023-02-13T14:51:13;101920.63;;;5.97;97.33
39699;BME280;25372;50.582;12.250;2023-02-13T15:01:44;101911.81;;;5.71;98.50
39699;BME280;25372;50.582;12.250;2023-02-13T15:12:26;101895.09;;;5.45;99.85
39699;BME280;25372;50.582;12.250;2023-02-13T15:22:47;101896.69;;;5.33;100.00
39699;BME280;25372;50.582;12.250;2023-02-13T15:33:16;101887.06;;;5.19;100.00
39699;BME280;25372;50.582;12.250;2023-02-13T15:43:39;101879.81;;;4.95;100.00
39699;BME280;25372;50.582;12.250;2023-02-13T15:54:05;101880.66;;;4.81;100.00
39699;BME280;25372;50.582;12.250;2023-02-13T16:04:26;101900.94;;;4.79;100.00
39699;BME280;25372;50.582;12.250;2023-02-13T16:14:52;101880.66;;;4.67;100.00
39699;BME280;25372;50.582;12.250;2023-02-13T16:25:17;101890.34;;;4.52;100.00
39699;BME280;25372;50.582;12.250;2023-02-13T16:35:42;101898.22;;;4.52;100.00
39699;BME280;25372;50.582;12.250;2023-02-13T16:46:19;101891.16;;;4.38;100.00
39699;BME280;25372;50.582;12.250;2023-02-13T16:56:46;101893.44;;;4.44;100.00
39699;BME280;25372;50.582;12.250;2023-02-13T17:07:11;101888.53;;;4.38;100.00
39699;BME280;25372;50.582;12.250;2023-02-13T17:17:33;101887.13;;;4.32;100.00
39699;BME280;25372;50.582;12.250;2023-02-13T17:27:56;101871.75;;;4.26;100.00
39699;BME280;25372;50.582;12.250;2023-02-13T17:38:19;101866.03;;;4.19;100.00
39699;BME280;25372;50.582;12.250;2023-02-13T17:48:39;101878.22;;;4.21;100.00
39699;BME280;25372;50.582;12.250;2023-02-13T17:59:02;101893.41;;;4.15;100.00
39699;BME280;25372;50.582;12.250;2023-02-13T18:09:22;101867.16;;;4.15;100.00
39699;BME280;25372;50.582;12.250;2023-02-13T18:19:44;101895.25;;;4.13;100.00
39699;BME280;25372;50.582;12.250;2023-02-13T18:30:07;101901.47;;;4.12;100.00
39699;BME280;25372;50.582;12.250;2023-02-13T18:40:29;101892.06;;;4.08;100.00
39699;BME280;25372;50.582;12.250;2023-02-13T18:50:50;101893.59;;;4.12;100.00
39699;BME280;25372;50.582;12.250;2023-02-13T19:01:14;101878.69;;;4.13;100.00
39699;BME280;25372;50.582;12.250;2023-02-13T19:11:37;101857.19;;;4.06;100.00
39699;BME280;25372;50.582;12.250;2023-02-13T19:22:00;101871.19;;;4.07;100.00
39699;BME280;25372;50.582;12.250;2023-02-13T19:32:21;101868.75;;;4.04;100.00
39699;BME280;25372;50.582;12.250;2023-02-13T19:42:43;101885.72;;;4.12;100.00
39699;BME280;25372;50.582;12.250;2023-02-13T19:53:04;101902.84;;;4.04;100.00
39699;BME280;25372;50.582;12.250;2023-02-13T20:03:27;101907.13;;;4.05;100.00
39699;BME280;25372;50.582;12.250;2023-02-13T20:13:52;101900.28;;;3.88;100.00
39699;BME280;25372;50.582;12.250;2023-02-13T20:24:16;101906.50;;;4.01;100.00
39699;BME280;25372;50.582;12.250;2023-02-13T20:34:36;101916.31;;;3.97;100.00
39699;BME280;25372;50.582;12.250;2023-02-13T20:44:58;101923.09;;;3.86;100.00
39699;BME280;25372;50.582;12.250;2023-02-13T20:55:19;101913.25;;;3.75;100.00
39699;BME280;25372;50.582;12.250;2023-02-13T21:05:41;101934.13;;;3.76;100.00
39699;BME280;25372;50.582;12.250;2023-02-13T21:16:04;101899.97;;;3.62;100.00
39699;BME280;25372;50.582;12.250;2023-02-13T21:26:27;101922.03;;;3.74;100.00
39699;BME280;25372;50.582;12.250;2023-02-13T21:36:48;101928.66;;;3.65;100.00
39699;BME280;25372;50.582;12.250;2023-02-13T21:47:10;101923.06;;;3.55;100.00
39699;BME280;25372;50.582;12.250;2023-02-13T21:57:31;101921.13;;;3.59;100.00
39699;BME280;25372;50.582;12.250;2023-02-13T22:07:53;101926.47;;;3.57;100.00
39699;BME280;25372;50.582;12.250;2023-02-13T22:18:33;101925.88;;;3.52;100.00
39699;BME280;25372;50.582;12.250;2023-02-13T22:28:58;101935.34;;;3.55;100.00
39699;BME280;25372;50.582;12.250;2023-02-13T22:39:19;101948.47;;;3.55;100.00
39699;BME280;25372;50.582;12.250;2023-02-13T22:49:41;101954.06;;;3.48;100.00
39699;BME280;25372;50.582;12.250;2023-02-13T23:00:03;101959.22;;;3.50;100.00
39699;BME280;25372;50.582;12.250;2023-02-13T23:10:26;101973.84;;;3.54;100.00
39699;BME280;25372;50.582;12.250;2023-02-13T23:20:47;101972.97;;;3.54;100.00
39699;BME280;25372;50.582;12.250;2023-02-13T23:31:09;101975.09;;;3.47;100.00
39699;BME280;25372;50.582;12.250;2023-02-13T23:41:30;101973.50;;;3.44;100.00
39699;BME280;25372;50.582;12.250;2023-02-13T23:51:52;101969.78;;;3.33;100.00
